sensor_id;sensor_type;location;lat;lon;timestamp;temperature;humidity
13231;DHT22;6681;53.254;10.398;2023-07-29T00:01:42;19.70;99.90
13231;DHT22;6681;53.254;10.398;2023-07-29T00:04:08;19.60;99.90
13231;DHT22;6681;53.254;10.398;2023-07-29T00:06:35;19.60;99.90
13231;DHT22;6681;53.254;10.398;2023-07-29T00:09:01;19.50;99.90
13231;DHT22;6681;53.254;10.398;2023-07-29T00:11:27;19.50;99.90
13231;DHT22;6681;53.254;10.398;2023-07-29T00:13:53;19.50;99.90
13231;DHT22;6681;53.254;10.398;2023-07-29T00:16:18;19.50;99.90
13231;DHT22;6681;53.254;10.398;2023-07-29T00:18:47;19.40;99.90
13231;DHT22;6681;53.254;10.398;2023-07-29T00:21:13;19.50;99.90
13231;DHT22;6681;53.254;10.398;2023-07-29T00:23:39;19.40;99.90
13231;DHT22;6681;53.254;10.398;2023-07-29T00:26:05;19.40;99.90
13231;DHT22;6681;53.254;10.398;2023-07-29T00:28:30;19.40;99.90
13231;DHT22;6681;53.254;10.398;2023-07-29T00:30:56;19.30;99.90
13231;DHT22;6681;53.254;10.398;2023-07-29T00:33:21;19.40;99.90
13231;DHT22;6681;53.254;10.398;2023-07-29T00:35:47;19.30;99.90
13231;DHT22;6681;53.254;10.398;2023-07-29T00:38:13;19.30;99.90
13231;DHT22;6681;53.254;10.398;2023-07-29T00:40:38;19.30;99.90
13231;DHT22;6681;53.254;10.398;2023-07-29T00:43:04;19.30;99.90
13231;DHT22;6681;53.254;10.398;2023-07-29T00:45:30;19.30;99.90
13231;DHT22;6681;53.254;10.398;2023-07-29T00:47:57;19.30;99.90
13231;DHT22;6681;53.254;10.398;2023-07-29T00:50:23;19.30;99.90
13231;DHT22;6681;53.254;10.398;2023-07-29T00:52:49;19.20;99.90
13231;DHT22;6681;53.254;10.398;2023-07-29T00:55:15;19.20;99.90
13231;DHT22;6681;53.254;10.398;2023-07-29T00:57:41;19.20;99.90
13231;DHT22;6681;53.254;10.398;2023-07-29T01:00:08;19.10;99.90
13231;DHT22;6681;53.254;10.398;2023-07-29T01:02:35;19.10;99.90
13231;DHT22;6681;53.254;10.398;2023-07-29T01:05:01;19.00;99.90
13231;DHT22;6681;53.254;10.398;2023-07-29T01:07:39;19.10;99.90
13231;DHT22;6681;53.254;10.398;2023-07-29T01:13:41;19.10;99.90
13231;DHT22;6681;53.254;10.398;2023-07-29T01:15:52;19.10;99.90
13231;DHT22;6681;53.254;10.398;2023-07-29T01:18:28;19.10;99.90
13231;DHT22;6681;53.254;10.398;2023-07-29T01:20:59;19.00;99.90
13231;DHT22;6681;53.254;10.398;2023-07-29T01:23:32;18.90;99.90
13231;DHT22;6681;53.254;10.398;2023-07-29T01:25:58;18.90;99.90
13231;DHT22;6681;53.254;10.398;2023-07-29T01:28:25;18.90;99.90
13231;DHT22;6681;53.254;10.398;2023-07-29T01:33:52;18.90;99.90
13231;DHT22;6681;53.254;10.398;2023-07-29T01:36:21;18.80;99.90
13231;DHT22;6681;53.254;10.398;2023-07-29T01:38:49;18.80;99.90
13231;DHT22;6681;53.254;10.398;2023-07-29T01:41:16;18.70;99.90
13231;DHT22;6681;53.254;10.398;2023-07-29T01:43:42;18.70;99.90
13231;DHT22;6681;53.254;10.398;2023-07-29T01:46:13;18.70;99.90
13231;DHT22;6681;53.254;10.398;2023-07-29T01:48:39;18.60;99.90
13231;DHT22;6681;53.254;10.398;2023-07-29T01:51:06;18.60;99.90
13231;DHT22;6681;53.254;10.398;2023-07-29T01:53:32;18.50;99.90
13231;DHT22;6681;53.254;10.398;2023-07-29T01:55:58;18.50;99.90
13231;DHT22;6681;53.254;10.398;2023-07-29T01:58:24;18.50;99.90
13231;DHT22;6681;53.254;10.398;2023-07-29T02:00:50;18.40;99.90
13231;DHT22;6681;53.254;10.398;2023-07-29T02:03:15;18.40;99.90
13231;DHT22;6681;53.254;10.398;2023-07-29T02:05:41;18.40;99.90
13231;DHT22;6681;53.254;10.398;2023-07-29T02:08:11;18.40;99.90
13231;DHT22;6681;53.254;10.398;2023-07-29T02:10:36;18.40;99.90
13231;DHT22;6681;53.254;10.398;2023-07-29T02:13:03;18.30;99.90
13231;DHT22;6681;53.254;10.398;2023-07-29T02:15:29;18.30;99.90
13231;DHT22;6681;53.254;10.398;2023-07-29T02:17:55;18.30;99.90
13231;DHT22;6681;53.254;10.398;2023-07-29T02:20:20;18.30;99.90
13231;DHT22;6681;53.254;10.398;2023-07-29T02:22:46;18.30;99.90
13231;DHT22;6681;53.254;10.398;2023-07-29T02:25:13;18.30;99.90
13231;DHT22;6681;53.254;10.398;2023-07-29T02:27:39;18.30;99.90
13231;DHT22;6681;53.254;10.398;2023-07-29T02:30:05;18.30;99.90
13231;DHT22;6681;53.254;10.398;2023-07-29T02:32:31;18.20;99.90
13231;DHT22;6681;53.254;10.398;2023-07-29T02:34:57;18.20;99.90
13231;DHT22;6681;53.254;10.398;2023-07-29T02:37:22;18.20;99.90
13231;DHT22;6681;53.254;10.398;2023-07-29T02:39:48;18.20;99.90
13231;DHT22;6681;53.254;10.398;2023-07-29T02:42:14;18.20;99.90
13231;DHT22;6681;53.254;10.398;2023-07-29T02:44:40;18.20;99.90
13231;DHT22;6681;53.254;10.398;2023-07-29T02:47:05;18.20;99.90
13231;DHT22;6681;53.254;10.398;2023-07-29T02:49:31;18.20;99.90
13231;DHT22;6681;53.254;10.398;2023-07-29T02:51:57;18.20;99.90
13231;DHT22;6681;53.254;10.398;2023-07-29T02:54:22;18.20;99.90
13231;DHT22;6681;53.254;10.398;2023-07-29T02:56:50;18.20;99.90
13231;DHT22;6681;53.254;10.398;2023-07-29T02:59:16;18.10;99.90
13231;DHT22;6681;53.254;10.398;2023-07-29T03:01:42;18.10;99.90
13231;DHT22;6681;53.254;10.398;2023-07-29T03:04:07;18.10;99.90
13231;DHT22;6681;53.254;10.398;2023-07-29T03:06:33;18.00;99.90
13231;DHT22;6681;53.254;10.398;2023-07-29T03:08:59;18.00;99.90
13231;DHT22;6681;53.254;10.398;2023-07-29T03:11:24;17.90;99.90
13231;DHT22;6681;53.254;10.398;2023-07-29T03:13:50;17.90;99.90
13231;DHT22;6681;53.254;10.398;2023-07-29T03:16:17;17.90;99.90
13231;DHT22;6681;53.254;10.398;2023-07-29T03:18:43;17.80;99.90
13231;DHT22;6681;53.254;10.398;2023-07-29T03:21:10;17.90;99.90
13231;DHT22;6681;53.254;10.398;2023-07-29T03:23:36;17.90;99.90
13231;DHT22;6681;53.254;10.398;2023-07-29T03:26:03;17.90;99.90
13231;DHT22;6681;53.254;10.398;2023-07-29T03:28:40;18.00;99.90
13231;DHT22;6681;53.254;10.398;2023-07-29T03:31:06;17.90;99.90
13231;DHT22;6681;53.254;10.398;2023-07-29T03:33:32;18.00;99.90
13231;DHT22;6681;53.254;10.398;2023-07-29T03:35:57;18.00;99.90
13231;DHT22;6681;53.254;10.398;2023-07-29T03:38:23;18.00;99.90
13231;DHT22;6681;53.254;10.398;2023-07-29T03:40:48;18.10;99.90
13231;DHT22;6681;53.254;10.398;2023-07-29T03:43:14;18.10;99.90
13231;DHT22;6681;53.254;10.398;2023-07-29T03:45:40;18.10;99.90
13231;DHT22;6681;53.254;10.398;2023-07-29T03:48:06;18.10;99.90
13231;DHT22;6681;53.254;10.398;2023-07-29T03:50:34;18.00;99.90
13231;DHT22;6681;53.254;10.398;2023-07-29T03:53:05;18.00;99.90
13231;DHT22;6681;53.254;10.398;2023-07-29T03:55:31;18.00;99.90
13231;DHT22;6681;53.254;10.398;2023-07-29T03:57:58;18.00;99.90
13231;DHT22;6681;53.254;10.398;2023-07-29T04:00:24;18.00;99.90
13231;DHT22;6681;53.254;10.398;2023-07-29T04:02:50;18.00;99.90
13231;DHT22;6681;53.254;10.398;2023-07-29T04:05:16;18.00;99.90
13231;DHT22;6681;53.254;10.398;2023-07-29T04:07:41;18.00;99.90
13231;DHT22;6681;53.254;10.398;2023-07-29T04:10:07;18.00;99.90
13231;DHT22;6681;53.254;10.398;2023-07-29T04:12:33;18.00;99.90
13231;DHT22;6681;53.254;10.398;2023-07-29T04:14:59;18.00;99.90
13231;DHT22;6681;53.254;10.398;2023-07-29T04:17:25;18.00;99.90
13231;DHT22;6681;53.254;10.398;2023-07-29T04:19:50;18.00;99.90
13231;DHT22;6681;53.254;10.398;2023-07-29T04:22:16;17.90;99.90
13231;DHT22;6681;53.254;10.398;2023-07-29T04:24:42;17.90;99.90
13231;DHT22;6681;53.254;10.398;2023-07-29T04:27:08;17.90;99.90
13231;DHT22;6681;53.254;10.398;2023-07-29T04:29:34;17.90;99.90
13231;DHT22;6681;53.254;10.398;2023-07-29T04:32:04;18.00;99.90
13231;DHT22;6681;53.254;10.398;2023-07-29T04:34:31;18.00;99.90
13231;DHT22;6681;53.254;10.398;2023-07-29T04:36:57;18.10;99.90
13231;DHT22;6681;53.254;10.398;2023-07-29T04:39:22;18.10;99.90
13231;DHT22;6681;53.254;10.398;2023-07-29T04:41:48;18.20;99.90
13231;DHT22;6681;53.254;10.398;2023-07-29T04:44:13;17.40;99.90
13231;DHT22;6681;53.254;10.398;2023-07-29T04:46:39;18.20;99.90
13231;DHT22;6681;53.254;10.398;2023-07-29T04:49:05;18.20;99.90
13231;DHT22;6681;53.254;10.398;2023-07-29T04:51:31;18.20;99.90
13231;DHT22;6681;53.254;10.398;2023-07-29T04:53:59;18.20;99.90
13231;DHT22;6681;53.254;10.398;2023-07-29T04:56:25;18.30;99.90
13231;DHT22;6681;53.254;10.398;2023-07-29T04:58:51;18.30;99.90
13231;DHT22;6681;53.254;10.398;2023-07-29T05:01:16;18.30;99.90
13231;DHT22;6681;53.254;10.398;2023-07-29T05:03:42;18.40;99.90
13231;DHT22;6681;53.254;10.398;2023-07-29T05:06:08;18.40;99.90
13231;DHT22;6681;53.254;10.398;2023-07-29T05:08:33;18.40;99.90
13231;DHT22;6681;53.254;10.398;2023-07-29T05:10:59;18.40;99.90
13231;DHT22;6681;53.254;10.398;2023-07-29T05:13:25;18.40;99.90
13231;DHT22;6681;53.254;10.398;2023-07-29T05:15:51;18.40;99.90
13231;DHT22;6681;53.254;10.398;2023-07-29T05:18:17;18.40;99.90
13231;DHT22;6681;53.254;10.398;2023-07-29T05:20:43;18.50;99.90
13231;DHT22;6681;53.254;10.398;2023-07-29T05:23:08;18.50;99.90
13231;DHT22;6681;53.254;10.398;2023-07-29T05:25:34;18.50;99.90
13231;DHT22;6681;53.254;10.398;2023-07-29T05:28:01;19.80;99.90
13231;DHT22;6681;53.254;10.398;2023-07-29T05:30:30;18.60;99.90
13231;DHT22;6681;53.254;10.398;2023-07-29T05:32:59;18.60;99.90
13231;DHT22;6681;53.254;10.398;2023-07-29T05:35:25;18.60;99.90
13231;DHT22;6681;53.254;10.398;2023-07-29T05:37:51;18.60;99.90
13231;DHT22;6681;53.254;10.398;2023-07-29T05:40:17;18.70;99.90
13231;DHT22;6681;53.254;10.398;2023-07-29T05:42:43;18.80;99.90
13231;DHT22;6681;53.254;10.398;2023-07-29T05:45:10;18.80;99.90
13231;DHT22;6681;53.254;10.398;2023-07-29T05:47:36;18.80;99.90
13231;DHT22;6681;53.254;10.398;2023-07-29T05:50:02;18.90;99.90
13231;DHT22;6681;53.254;10.398;2023-07-29T05:52:32;19.00;99.90
13231;DHT22;6681;53.254;10.398;2023-07-29T05:54:58;19.00;99.90
13231;DHT22;6681;53.254;10.398;2023-07-29T05:57:23;19.10;99.90
13231;DHT22;6681;53.254;10.398;2023-07-29T05:59:49;19.10;99.90
13231;DHT22;6681;53.254;10.398;2023-07-29T06:02:15;19.10;99.90
13231;DHT22;6681;53.254;10.398;2023-07-29T06:04:40;19.20;99.90
13231;DHT22;6681;53.254;10.398;2023-07-29T06:07:06;19.20;99.90
13231;DHT22;6681;53.254;10.398;2023-07-29T06:09:32;19.30;99.90
13231;DHT22;6681;53.254;10.398;2023-07-29T06:11:57;19.30;99.90
13231;DHT22;6681;53.254;10.398;2023-07-29T06:14:24;19.30;99.90
13231;DHT22;6681;53.254;10.398;2023-07-29T06:16:49;19.40;99.90
13231;DHT22;6681;53.254;10.398;2023-07-29T06:19:15;19.50;99.90
13231;DHT22;6681;53.254;10.398;2023-07-29T06:21:41;19.50;99.90
13231;DHT22;6681;53.254;10.398;2023-07-29T06:24:07;19.50;99.90
13231;DHT22;6681;53.254;10.398;2023-07-29T06:26:32;19.50;99.90
13231;DHT22;6681;53.254;10.398;2023-07-29T06:28:58;19.50;99.90
13231;DHT22;6681;53.254;10.398;2023-07-29T06:31:24;19.50;99.90
13231;DHT22;6681;53.254;10.398;2023-07-29T06:33:49;19.60;99.90
13231;DHT22;6681;53.254;10.398;2023-07-29T06:36:15;19.60;99.90
13231;DHT22;6681;53.254;10.398;2023-07-29T06:38:41;19.60;99.90
13231;DHT22;6681;53.254;10.398;2023-07-29T06:41:07;19.70;99.90
13231;DHT22;6681;53.254;10.398;2023-07-29T06:43:32;19.80;99.90
13231;DHT22;6681;53.254;10.398;2023-07-29T06:45:58;19.90;99.90
13231;DHT22;6681;53.254;10.398;2023-07-29T06:48:24;19.90;99.90
13231;DHT22;6681;53.254;10.398;2023-07-29T06:50:50;19.90;99.90
13231;DHT22;6681;53.254;10.398;2023-07-29T06:53:16;20.00;99.90
13231;DHT22;6681;53.254;10.398;2023-07-29T06:55:43;20.10;99.90
13231;DHT22;6681;53.254;10.398;2023-07-29T06:58:09;20.20;99.90
13231;DHT22;6681;53.254;10.398;2023-07-29T07:00:35;20.20;99.90
13231;DHT22;6681;53.254;10.398;2023-07-29T07:03:00;20.20;99.90
13231;DHT22;6681;53.254;10.398;2023-07-29T07:05:26;20.20;99.90
13231;DHT22;6681;53.254;10.398;2023-07-29T07:07:52;20.30;99.90
13231;DHT22;6681;53.254;10.398;2023-07-29T07:10:18;20.40;99.90
13231;DHT22;6681;53.254;10.398;2023-07-29T07:12:44;20.50;99.90
13231;DHT22;6681;53.254;10.398;2023-07-29T07:15:09;20.60;99.90
13231;DHT22;6681;53.254;10.398;2023-07-29T07:17:35;20.60;99.90
13231;DHT22;6681;53.254;10.398;2023-07-29T07:20:01;20.80;99.90
13231;DHT22;6681;53.254;10.398;2023-07-29T07:22:27;20.80;99.90
13231;DHT22;6681;53.254;10.398;2023-07-29T07:24:52;20.90;99.90
13231;DHT22;6681;53.254;10.398;2023-07-29T07:27:18;21.00;99.90
13231;DHT22;6681;53.254;10.398;2023-07-29T07:29:43;21.00;99.90
13231;DHT22;6681;53.254;10.398;2023-07-29T07:32:09;21.00;99.90
13231;DHT22;6681;53.254;10.398;2023-07-29T07:34:35;21.10;99.90
13231;DHT22;6681;53.254;10.398;2023-07-29T07:37:00;21.10;99.90
13231;DHT22;6681;53.254;10.398;2023-07-29T07:39:26;21.10;99.90
13231;DHT22;6681;53.254;10.398;2023-07-29T07:41:52;21.00;99.90
13231;DHT22;6681;53.254;10.398;2023-07-29T07:44:18;21.00;99.90
13231;DHT22;6681;53.254;10.398;2023-07-29T07:46:45;21.00;99.90
13231;DHT22;6681;53.254;10.398;2023-07-29T07:49:11;21.00;99.90
13231;DHT22;6681;53.254;10.398;2023-07-29T07:51:38;21.00;99.90
13231;DHT22;6681;53.254;10.398;2023-07-29T07:54:03;21.10;99.90
13231;DHT22;6681;53.254;10.398;2023-07-29T07:56:29;21.10;99.90
13231;DHT22;6681;53.254;10.398;2023-07-29T07:58:55;21.10;99.90
13231;DHT22;6681;53.254;10.398;2023-07-29T08:01:20;21.10;99.90
13231;DHT22;6681;53.254;10.398;2023-07-29T08:03:46;21.10;99.90
13231;DHT22;6681;53.254;10.398;2023-07-29T08:06:11;21.10;99.90
13231;DHT22;6681;53.254;10.398;2023-07-29T08:08:37;21.10;99.90
13231;DHT22;6681;53.254;10.398;2023-07-29T08:11:03;21.10;99.90
13231;DHT22;6681;53.254;10.398;2023-07-29T08:13:28;21.10;99.90
13231;DHT22;6681;53.254;10.398;2023-07-29T08:15:54;21.10;99.90
13231;DHT22;6681;53.254;10.398;2023-07-29T08:18:19;21.20;99.90
13231;DHT22;6681;53.254;10.398;2023-07-29T08:20:57;21.20;99.90
13231;DHT22;6681;53.254;10.398;2023-07-29T08:23:27;21.20;99.90
13231;DHT22;6681;53.254;10.398;2023-07-29T08:25:57;21.30;99.90
13231;DHT22;6681;53.254;10.398;2023-07-29T08:28:34;21.30;99.90
13231;DHT22;6681;53.254;10.398;2023-07-29T08:31:00;21.30;99.90
13231;DHT22;6681;53.254;10.398;2023-07-29T08:33:26;21.30;99.90
13231;DHT22;6681;53.254;10.398;2023-07-29T08:35:52;21.30;99.90
13231;DHT22;6681;53.254;10.398;2023-07-29T08:38:18;21.30;99.90
13231;DHT22;6681;53.254;10.398;2023-07-29T08:43:32;21.20;99.90
13231;DHT22;6681;53.254;10.398;2023-07-29T08:45:59;21.10;99.90
13231;DHT22;6681;53.254;10.398;2023-07-29T08:48:36;21.00;99.90
13231;DHT22;6681;53.254;10.398;2023-07-29T08:51:05;21.00;99.90
13231;DHT22;6681;53.254;10.398;2023-07-29T08:53:33;20.90;99.90
13231;DHT22;6681;53.254;10.398;2023-07-29T08:55:59;20.90;99.90
13231;DHT22;6681;53.254;10.398;2023-07-29T08:58:25;20.90;99.90
13231;DHT22;6681;53.254;10.398;2023-07-29T09:00:51;20.90;99.90
13231;DHT22;6681;53.254;10.398;2023-07-29T09:03:17;20.90;99.90
13231;DHT22;6681;53.254;10.398;2023-07-29T09:05:43;20.90;99.90
13231;DHT22;6681;53.254;10.398;2023-07-29T09:08:09;20.80;99.90
13231;DHT22;6681;53.254;10.398;2023-07-29T09:10:36;20.80;99.90
13231;DHT22;6681;53.254;10.398;2023-07-29T09:13:03;20.70;99.90
13231;DHT22;6681;53.254;10.398;2023-07-29T09:15:30;20.70;99.90
13231;DHT22;6681;53.254;10.398;2023-07-29T09:17:57;20.70;99.90
13231;DHT22;6681;53.254;10.398;2023-07-29T09:20:28;20.70;99.90
13231;DHT22;6681;53.254;10.398;2023-07-29T09:22:55;20.60;99.90
13231;DHT22;6681;53.254;10.398;2023-07-29T09:25:26;20.60;99.90
13231;DHT22;6681;53.254;10.398;2023-07-29T09:27:52;20.60;99.90
13231;DHT22;6681;53.254;10.398;2023-07-29T09:30:18;20.50;99.90
13231;DHT22;6681;53.254;10.398;2023-07-29T09:32:44;20.40;99.90
13231;DHT22;6681;53.254;10.398;2023-07-29T09:35:11;20.40;99.90
13231;DHT22;6681;53.254;10.398;2023-07-29T09:37:38;20.20;99.90
13231;DHT22;6681;53.254;10.398;2023-07-29T09:40:05;20.20;99.90
13231;DHT22;6681;53.254;10.398;2023-07-29T09:42:31;20.20;99.90
13231;DHT22;6681;53.254;10.398;2023-07-29T09:44:56;20.20;99.90
13231;DHT22;6681;53.254;10.398;2023-07-29T09:47:23;20.20;99.90
13231;DHT22;6681;53.254;10.398;2023-07-29T09:49:50;20.10;99.90
13231;DHT22;6681;53.254;10.398;2023-07-29T09:52:20;20.10;99.90
13231;DHT22;6681;53.254;10.398;2023-07-29T09:54:47;20.10;99.90
13231;DHT22;6681;53.254;10.398;2023-07-29T09:57:17;20.10;99.90
13231;DHT22;6681;53.254;10.398;2023-07-29T09:59:52;20.20;99.90
13231;DHT22;6681;53.254;10.398;2023-07-29T10:02:19;20.20;99.90
13231;DHT22;6681;53.254;10.398;2023-07-29T10:04:46;20.20;99.90
13231;DHT22;6681;53.254;10.398;2023-07-29T10:07:12;20.20;99.90
13231;DHT22;6681;53.254;10.398;2023-07-29T10:09:40;20.30;99.90
13231;DHT22;6681;53.254;10.398;2023-07-29T10:12:06;20.30;99.90
13231;DHT22;6681;53.254;10.398;2023-07-29T10:14:33;20.40;99.90
13231;DHT22;6681;53.254;10.398;2023-07-29T10:17:00;20.40;99.90
13231;DHT22;6681;53.254;10.398;2023-07-29T10:19:25;20.40;99.90
13231;DHT22;6681;53.254;10.398;2023-07-29T10:21:52;20.50;99.90
13231;DHT22;6681;53.254;10.398;2023-07-29T10:24:24;20.50;99.90
13231;DHT22;6681;53.254;10.398;2023-07-29T10:26:58;20.50;99.90
13231;DHT22;6681;53.254;10.398;2023-07-29T10:29:24;20.60;99.90
13231;DHT22;6681;53.254;10.398;2023-07-29T10:31:52;20.70;99.90
13231;DHT22;6681;53.254;10.398;2023-07-29T10:34:21;20.80;99.90
13231;DHT22;6681;53.254;10.398;2023-07-29T10:36:48;20.80;99.90
13231;DHT22;6681;53.254;10.398;2023-07-29T10:39:14;20.90;99.90
13231;DHT22;6681;53.254;10.398;2023-07-29T10:42:00;20.90;99.90
13231;DHT22;6681;53.254;10.398;2023-07-29T10:47:24;21.10;99.90
13231;DHT22;6681;53.254;10.398;2023-07-29T10:49:57;21.10;99.90
13231;DHT22;6681;53.254;10.398;2023-07-29T10:55:02;21.20;99.90
13231;DHT22;6681;53.254;10.398;2023-07-29T10:57:37;21.20;99.90
13231;DHT22;6681;53.254;10.398;2023-07-29T11:00:04;21.30;99.90
13231;DHT22;6681;53.254;10.398;2023-07-29T11:02:37;21.20;99.90
13231;DHT22;6681;53.254;10.398;2023-07-29T11:05:08;21.20;99.90
13231;DHT22;6681;53.254;10.398;2023-07-29T11:07:44;21.20;99.90
13231;DHT22;6681;53.254;10.398;2023-07-29T11:10:12;21.20;99.90
13231;DHT22;6681;53.254;10.398;2023-07-29T11:12:49;21.30;99.90
13231;DHT22;6681;53.254;10.398;2023-07-29T11:15:27;21.40;99.90
13231;DHT22;6681;53.254;10.398;2023-07-29T11:17:58;21.50;99.90
13231;DHT22;6681;53.254;10.398;2023-07-29T11:20:28;21.60;99.90
13231;DHT22;6681;53.254;10.398;2023-07-29T11:22:56;21.70;99.90
13231;DHT22;6681;53.254;10.398;2023-07-29T11:25:24;21.70;99.90
13231;DHT22;6681;53.254;10.398;2023-07-29T11:27:52;21.70;99.90
13231;DHT22;6681;53.254;10.398;2023-07-29T11:30:18;21.70;99.90
13231;DHT22;6681;53.254;10.398;2023-07-29T11:32:46;21.80;99.90
13231;DHT22;6681;53.254;10.398;2023-07-29T11:35:13;21.80;99.90
13231;DHT22;6681;53.254;10.398;2023-07-29T11:37:41;21.80;99.90
13231;DHT22;6681;53.254;10.398;2023-07-29T11:40:07;21.80;99.90
13231;DHT22;6681;53.254;10.398;2023-07-29T11:42:36;21.80;99.90
13231;DHT22;6681;53.254;10.398;2023-07-29T11:45:03;21.80;99.90
13231;DHT22;6681;53.254;10.398;2023-07-29T11:47:32;21.80;99.90
13231;DHT22;6681;53.254;10.398;2023-07-29T11:50:03;21.90;99.90
13231;DHT22;6681;53.254;10.398;2023-07-29T11:52:32;21.80;99.90
13231;DHT22;6681;53.254;10.398;2023-07-29T11:54:58;21.80;99.90
13231;DHT22;6681;53.254;10.398;2023-07-29T11:57:25;21.80;99.90
13231;DHT22;6681;53.254;10.398;2023-07-29T11:59:51;21.90;99.90
13231;DHT22;6681;53.254;10.398;2023-07-29T12:02:18;21.90;99.90
13231;DHT22;6681;53.254;10.398;2023-07-29T12:04:46;21.90;99.90
13231;DHT22;6681;53.254;10.398;2023-07-29T12:07:13;21.90;99.90
13231;DHT22;6681;53.254;10.398;2023-07-29T12:09:41;21.90;99.90
13231;DHT22;6681;53.254;10.398;2023-07-29T12:12:07;21.90;99.90
13231;DHT22;6681;53.254;10.398;2023-07-29T12:14:34;21.90;99.90
13231;DHT22;6681;53.254;10.398;2023-07-29T12:17:01;22.00;99.90
13231;DHT22;6681;53.254;10.398;2023-07-29T12:19:37;22.30;99.90
13231;DHT22;6681;53.254;10.398;2023-07-29T12:22:05;22.40;99.90
13231;DHT22;6681;53.254;10.398;2023-07-29T12:24:33;22.40;99.90
13231;DHT22;6681;53.254;10.398;2023-07-29T12:26:59;22.50;99.90
13231;DHT22;6681;53.254;10.398;2023-07-29T12:29:26;22.40;99.90
13231;DHT22;6681;53.254;10.398;2023-07-29T12:32:10;22.40;99.90
13231;DHT22;6681;53.254;10.398;2023-07-29T12:34:37;22.60;99.90
13231;DHT22;6681;53.254;10.398;2023-07-29T12:37:04;22.80;99.90
13231;DHT22;6681;53.254;10.398;2023-07-29T12:39:33;23.00;99.90
13231;DHT22;6681;53.254;10.398;2023-07-29T12:42:00;23.20;99.90
13231;DHT22;6681;53.254;10.398;2023-07-29T12:44:31;23.40;99.90
13231;DHT22;6681;53.254;10.398;2023-07-29T12:46:56;23.70;99.90
13231;DHT22;6681;53.254;10.398;2023-07-29T12:49:22;23.80;99.90
13231;DHT22;6681;53.254;10.398;2023-07-29T12:51:48;23.90;99.90
13231;DHT22;6681;53.254;10.398;2023-07-29T12:54:14;23.70;99.90
13231;DHT22;6681;53.254;10.398;2023-07-29T12:56:39;23.50;99.90
13231;DHT22;6681;53.254;10.398;2023-07-29T12:59:05;23.50;99.90
13231;DHT22;6681;53.254;10.398;2023-07-29T13:01:31;23.30;99.90
13231;DHT22;6681;53.254;10.398;2023-07-29T13:03:57;23.30;99.90
13231;DHT22;6681;53.254;10.398;2023-07-29T13:06:23;23.50;99.90
13231;DHT22;6681;53.254;10.398;2023-07-29T13:08:49;23.60;99.90
13231;DHT22;6681;53.254;10.398;2023-07-29T13:11:15;23.80;99.90
13231;DHT22;6681;53.254;10.398;2023-07-29T13:13:41;24.00;99.90
13231;DHT22;6681;53.254;10.398;2023-07-29T13:16:07;24.10;99.90
13231;DHT22;6681;53.254;10.398;2023-07-29T13:18:33;24.20;99.90
13231;DHT22;6681;53.254;10.398;2023-07-29T13:21:00;24.30;99.90
13231;DHT22;6681;53.254;10.398;2023-07-29T13:23:26;24.40;99.90
13231;DHT22;6681;53.254;10.398;2023-07-29T13:25:52;24.20;99.90
13231;DHT22;6681;53.254;10.398;2023-07-29T13:28:18;24.30;99.90
13231;DHT22;6681;53.254;10.398;2023-07-29T13:30:44;24.40;99.90
13231;DHT22;6681;53.254;10.398;2023-07-29T13:33:10;24.40;99.90
13231;DHT22;6681;53.254;10.398;2023-07-29T13:35:35;24.20;99.90
13231;DHT22;6681;53.254;10.398;2023-07-29T13:38:02;24.10;99.90
13231;DHT22;6681;53.254;10.398;2023-07-29T13:40:27;23.90;99.90
13231;DHT22;6681;53.254;10.398;2023-07-29T13:42:54;23.80;99.90
13231;DHT22;6681;53.254;10.398;2023-07-29T13:45:20;23.80;99.90
13231;DHT22;6681;53.254;10.398;2023-07-29T13:47:46;24.00;99.90
13231;DHT22;6681;53.254;10.398;2023-07-29T13:50:11;24.10;99.90
13231;DHT22;6681;53.254;10.398;2023-07-29T13:52:37;24.30;99.90
13231;DHT22;6681;53.254;10.398;2023-07-29T13:55:04;24.40;99.90
13231;DHT22;6681;53.254;10.398;2023-07-29T13:57:30;24.40;99.90
13231;DHT22;6681;53.254;10.398;2023-07-29T13:59:55;24.60;99.90
13231;DHT22;6681;53.254;10.398;2023-07-29T14:02:21;24.90;99.90
13231;DHT22;6681;53.254;10.398;2023-07-29T14:04:47;25.10;99.90
13231;DHT22;6681;53.254;10.398;2023-07-29T14:07:12;25.00;99.90
13231;DHT22;6681;53.254;10.398;2023-07-29T14:09:38;24.70;99.90
13231;DHT22;6681;53.254;10.398;2023-07-29T14:12:04;24.80;99.90
13231;DHT22;6681;53.254;10.398;2023-07-29T14:14:30;24.80;99.90
13231;DHT22;6681;53.254;10.398;2023-07-29T14:16:56;24.90;99.90
13231;DHT22;6681;53.254;10.398;2023-07-29T14:19:23;25.10;99.90
13231;DHT22;6681;53.254;10.398;2023-07-29T14:21:49;25.20;99.90
13231;DHT22;6681;53.254;10.398;2023-07-29T14:24:14;25.40;99.90
13231;DHT22;6681;53.254;10.398;2023-07-29T14:26:41;25.70;99.90
13231;DHT22;6681;53.254;10.398;2023-07-29T14:29:06;25.90;99.90
13231;DHT22;6681;53.254;10.398;2023-07-29T14:31:32;26.00;99.90
13231;DHT22;6681;53.254;10.398;2023-07-29T14:33:58;26.00;99.90
13231;DHT22;6681;53.254;10.398;2023-07-29T14:36:24;26.00;99.90
13231;DHT22;6681;53.254;10.398;2023-07-29T14:38:50;26.10;99.90
13231;DHT22;6681;53.254;10.398;2023-07-29T14:41:16;26.10;99.90
13231;DHT22;6681;53.254;10.398;2023-07-29T14:43:41;26.30;99.90
13231;DHT22;6681;53.254;10.398;2023-07-29T14:46:07;26.20;99.90
13231;DHT22;6681;53.254;10.398;2023-07-29T14:48:32;26.30;99.90
13231;DHT22;6681;53.254;10.398;2023-07-29T14:50:58;26.20;99.90
13231;DHT22;6681;53.254;10.398;2023-07-29T14:53:24;26.30;99.90
13231;DHT22;6681;53.254;10.398;2023-07-29T14:55:50;26.70;99.90
13231;DHT22;6681;53.254;10.398;2023-07-29T14:58:16;26.70;99.90
13231;DHT22;6681;53.254;10.398;2023-07-29T15:00:42;26.70;99.90
13231;DHT22;6681;53.254;10.398;2023-07-29T15:03:08;26.70;99.90
13231;DHT22;6681;53.254;10.398;2023-07-29T15:05:33;26.70;99.90
13231;DHT22;6681;53.254;10.398;2023-07-29T15:07:59;27.00;99.90
13231;DHT22;6681;53.254;10.398;2023-07-29T15:10:25;27.10;99.90
13231;DHT22;6681;53.254;10.398;2023-07-29T15:12:51;27.00;99.90
13231;DHT22;6681;53.254;10.398;2023-07-29T15:15:16;27.10;99.90
13231;DHT22;6681;53.254;10.398;2023-07-29T15:17:42;26.80;99.90
13231;DHT22;6681;53.254;10.398;2023-07-29T15:20:08;26.90;99.90
13231;DHT22;6681;53.254;10.398;2023-07-29T15:22:34;26.90;99.90
13231;DHT22;6681;53.254;10.398;2023-07-29T15:25:00;27.30;99.90
13231;DHT22;6681;53.254;10.398;2023-07-29T15:27:29;27.30;99.90
13231;DHT22;6681;53.254;10.398;2023-07-29T15:29:56;27.40;99.90
13231;DHT22;6681;53.254;10.398;2023-07-29T15:32:22;27.30;99.90
13231;DHT22;6681;53.254;10.398;2023-07-29T15:34:49;27.40;99.90
13231;DHT22;6681;53.254;10.398;2023-07-29T15:37:15;27.50;99.90
13231;DHT22;6681;53.254;10.398;2023-07-29T15:39:41;27.50;99.90
13231;DHT22;6681;53.254;10.398;2023-07-29T15:42:07;27.10;99.90